SSF258 UUDD-ULWC
Flight info
| Callsign | SSF258 |
|---|---|
| Flight time | 0h 53m |
| Altitude | 27000 |
| Route | N0420F270 RILPO T753 DEGOP/N0424F260 T747 BIKBA T785 DETAT |
| Aircraft | CRJ2/M-J/L |
Departure
| Time | 2026-04-20 16:09 |
|---|---|
| Airport | Domodedovo International Airport (UUDD) |
Arrival
| Time | 2026-04-20 17:02 |
|---|---|
| Airport | Cherepovets Airport (ULWC) |
| Time | Latitude | Longitude | Altitude | Speed | Heading |
|---|---|---|---|---|---|
| 2026-04-20 15:46 | 55.41007 | 37.89522 | 578 ft | 0 kts | 54° |
| 2026-04-20 16:05 | 55.41011 | 37.89532 | 576 ft | 3 kts | 54° |
| 2026-04-20 16:06 | 55.41023 | 37.89595 | 575 ft | 8 kts | 111° |
| 2026-04-20 16:06 | 55.40963 | 37.89675 | 573 ft | 15 kts | 161° |
| 2026-04-20 16:06 | 55.40875 | 37.89571 | 573 ft | 18 kts | 221° |
| 2026-04-20 16:06 | 55.40815 | 37.89449 | 571 ft | 22 kts | 234° |
| 2026-04-20 16:07 | 55.40647 | 37.89342 | 571 ft | 27 kts | 150° |
| 2026-04-20 16:07 | 55.40480 | 37.89537 | 562 ft | 30 kts | 146° |
| 2026-04-20 16:07 | 55.40360 | 37.89684 | 560 ft | 32 kts | 142° |
| 2026-04-20 16:07 | 55.40173 | 37.89906 | 555 ft | 34 kts | 143° |
| 2026-04-20 16:08 | 55.40067 | 37.89839 | 555 ft | 12 kts | 301° |
| 2026-04-20 16:08 | 55.40097 | 37.89750 | 556 ft | 13 kts | 301° |
| 2026-04-20 16:08 | 55.40144 | 37.89625 | 557 ft | 14 kts | 308° |
| 2026-04-20 16:08 | 55.40414 | 37.89254 | 568 ft | 88 kts | 324° |
| 2026-04-20 16:09 | 55.41104 | 37.88425 | 627 ft | 145 kts | 326° |
| 2026-04-20 16:09 | 55.41953 | 37.87381 | 1316 ft | 151 kts | 328° |
| 2026-04-20 16:09 | 55.42803 | 37.86099 | 1947 ft | 176 kts | 315° |
| 2026-04-20 16:09 | 55.43628 | 37.84378 | 2648 ft | 190 kts | 314° |
| 2026-04-20 16:10 | 55.44499 | 37.82544 | 3446 ft | 199 kts | 314° |
| 2026-04-20 16:10 | 55.45401 | 37.80641 | 4253 ft | 205 kts | 315° |
| 2026-04-20 16:10 | 55.46340 | 37.78720 | 5059 ft | 207 kts | 317° |
| 2026-04-20 16:10 | 55.47528 | 37.77416 | 5754 ft | 205 kts | 342° |
| 2026-04-20 16:11 | 55.48867 | 37.76503 | 6507 ft | 207 kts | 344° |
| 2026-04-20 16:11 | 55.50236 | 37.75673 | 7186 ft | 209 kts | 346° |
| 2026-04-20 16:11 | 55.51628 | 37.74863 | 7872 ft | 211 kts | 347° |
| 2026-04-20 16:11 | 55.53064 | 37.74848 | 8454 ft | 210 kts | 19° |
| 2026-04-20 16:12 | 55.54457 | 37.75841 | 8982 ft | 223 kts | 27° |
| 2026-04-20 16:12 | 55.55815 | 37.77151 | 9686 ft | 227 kts | 31° |
| 2026-04-20 16:12 | 55.57170 | 37.78631 | 10368 ft | 230 kts | 32° |
| 2026-04-20 16:12 | 55.58540 | 37.80152 | 11056 ft | 234 kts | 32° |
| 2026-04-20 16:13 | 55.59941 | 37.81653 | 11748 ft | 237 kts | 31° |
| 2026-04-20 16:13 | 55.61372 | 37.83128 | 12426 ft | 240 kts | 31° |
| 2026-04-20 16:13 | 55.62826 | 37.84616 | 13097 ft | 242 kts | 31° |
| 2026-04-20 16:13 | 55.64299 | 37.86119 | 13762 ft | 246 kts | 28° |
| 2026-04-20 16:14 | 55.65949 | 37.86845 | 14316 ft | 252 kts | 7° |
| 2026-04-20 16:14 | 55.67722 | 37.86952 | 14889 ft | 257 kts | 2° |
| 2026-04-20 16:14 | 55.69521 | 37.86859 | 15467 ft | 260 kts | 1° |
| 2026-04-20 16:14 | 55.71346 | 37.86735 | 16047 ft | 263 kts | 1° |
| 2026-04-20 16:15 | 55.73166 | 37.86643 | 16614 ft | 266 kts | 2° |
| 2026-04-20 16:15 | 55.75032 | 37.86607 | 17185 ft | 269 kts | 3° |
| 2026-04-20 16:15 | 55.76919 | 37.86575 | 17752 ft | 272 kts | 3° |
| 2026-04-20 16:15 | 55.78823 | 37.86550 | 18297 ft | 275 kts | 3° |
| 2026-04-20 16:16 | 55.80746 | 37.86519 | 18787 ft | 277 kts | 3° |
| 2026-04-20 16:16 | 55.82688 | 37.86488 | 19272 ft | 280 kts | 4° |
| 2026-04-20 16:16 | 55.84642 | 37.86456 | 19758 ft | 282 kts | 4° |
| 2026-04-20 16:16 | 55.86574 | 37.86605 | 20201 ft | 280 kts | 17° |
| 2026-04-20 16:17 | 55.88426 | 37.87655 | 20681 ft | 278 kts | 25° |
| 2026-04-20 16:17 | 55.90211 | 37.89063 | 21143 ft | 280 kts | 28° |
| 2026-04-20 16:17 | 55.91971 | 37.90519 | 21602 ft | 282 kts | 28° |
| 2026-04-20 16:17 | 55.93775 | 37.91935 | 22052 ft | 285 kts | 26° |
| 2026-04-20 16:18 | 55.95620 | 37.93293 | 22498 ft | 287 kts | 26° |
| 2026-04-20 16:18 | 55.97479 | 37.94660 | 22919 ft | 290 kts | 26° |
| 2026-04-20 16:18 | 55.99377 | 37.95958 | 23317 ft | 296 kts | 17° |
| 2026-04-20 16:18 | 56.01444 | 37.95934 | 23664 ft | 307 kts | 355° |
| 2026-04-20 16:19 | 56.03544 | 37.94970 | 23999 ft | 314 kts | 344° |
| 2026-04-20 16:19 | 56.05559 | 37.93508 | 24318 ft | 318 kts | 340° |
| 2026-04-20 16:19 | 56.07594 | 37.91892 | 24651 ft | 320 kts | 340° |
| 2026-04-20 16:19 | 56.09648 | 37.90285 | 24976 ft | 322 kts | 341° |
| 2026-04-20 16:20 | 56.11736 | 37.88768 | 25299 ft | 324 kts | 343° |
| 2026-04-20 16:20 | 56.13881 | 37.87535 | 25580 ft | 322 kts | 356° |
| 2026-04-20 16:20 | 56.16080 | 37.87222 | 25889 ft | 320 kts | 4° |
| 2026-04-20 16:20 | 56.18303 | 37.87423 | 26184 ft | 319 kts | 10° |
| 2026-04-20 16:21 | 56.20526 | 37.87889 | 26493 ft | 321 kts | 11° |
| 2026-04-20 16:21 | 56.22732 | 37.88338 | 26736 ft | 326 kts | 9° |
| 2026-04-20 16:21 | 56.25023 | 37.88687 | 26853 ft | 335 kts | 8° |
| 2026-04-20 16:21 | 56.27382 | 37.88988 | 26904 ft | 344 kts | 8° |
| 2026-04-20 16:22 | 56.29815 | 37.89329 | 26933 ft | 355 kts | 8° |
| 2026-04-20 16:22 | 56.32312 | 37.89706 | 26943 ft | 365 kts | 8° |
| 2026-04-20 16:22 | 56.34864 | 37.90078 | 26949 ft | 372 kts | 8° |
| 2026-04-20 16:22 | 56.37435 | 37.90454 | 26950 ft | 378 kts | 8° |
| 2026-04-20 16:23 | 56.40083 | 37.90840 | 26951 ft | 383 kts | 7° |
| 2026-04-20 16:23 | 56.42774 | 37.91186 | 26948 ft | 389 kts | 7° |
| 2026-04-20 16:23 | 56.45498 | 37.91553 | 26944 ft | 394 kts | 7° |
| 2026-04-20 16:23 | 56.48251 | 37.91927 | 26945 ft | 399 kts | 7° |
| 2026-04-20 16:24 | 56.51005 | 37.92296 | 26945 ft | 404 kts | 7° |
| 2026-04-20 16:24 | 56.53824 | 37.92684 | 26941 ft | 409 kts | 7° |
| 2026-04-20 16:24 | 56.56687 | 37.93075 | 26942 ft | 413 kts | 7° |
| 2026-04-20 16:24 | 56.59562 | 37.93464 | 26941 ft | 416 kts | 7° |
| 2026-04-20 16:25 | 56.62458 | 37.93861 | 26945 ft | 418 kts | 7° |
| 2026-04-20 16:25 | 56.65328 | 37.94321 | 26933 ft | 419 kts | 12° |
| 2026-04-20 16:25 | 56.68077 | 37.95957 | 26940 ft | 414 kts | 30° |
| 2026-04-20 16:25 | 56.70584 | 37.98543 | 26948 ft | 413 kts | 34° |
| 2026-04-20 16:26 | 56.72983 | 38.01441 | 26951 ft | 413 kts | 39° |
| 2026-04-20 16:26 | 56.75129 | 38.04850 | 26950 ft | 413 kts | 46° |
| 2026-04-20 16:26 | 56.77137 | 38.08599 | 26947 ft | 413 kts | 48° |
| 2026-04-20 16:26 | 56.79121 | 38.12401 | 26939 ft | 414 kts | 48° |
| 2026-04-20 16:27 | 56.81134 | 38.16185 | 26940 ft | 414 kts | 47° |
| 2026-04-20 16:27 | 56.83161 | 38.19844 | 26937 ft | 414 kts | 46° |
| 2026-04-20 16:27 | 56.85223 | 38.23551 | 26932 ft | 414 kts | 46° |
| 2026-04-20 16:27 | 56.87281 | 38.27249 | 26936 ft | 415 kts | 45° |
| 2026-04-20 16:28 | 56.89434 | 38.30769 | 26932 ft | 416 kts | 42° |
| 2026-04-20 16:28 | 56.91669 | 38.34150 | 26932 ft | 416 kts | 41° |
| 2026-04-20 16:28 | 56.93881 | 38.37481 | 26934 ft | 416 kts | 41° |
| 2026-04-20 16:28 | 56.96111 | 38.40879 | 26933 ft | 416 kts | 42° |
| 2026-04-20 16:29 | 56.98318 | 38.44327 | 26937 ft | 416 kts | 42° |
| 2026-04-20 16:29 | 57.00520 | 38.47784 | 26938 ft | 416 kts | 42° |
| 2026-04-20 16:29 | 57.02697 | 38.51208 | 26934 ft | 416 kts | 42° |
| 2026-04-20 16:29 | 57.04899 | 38.54675 | 26933 ft | 417 kts | 42° |
| 2026-04-20 16:30 | 57.07097 | 38.58145 | 26936 ft | 417 kts | 42° |
| 2026-04-20 16:30 | 57.09297 | 38.61627 | 26934 ft | 417 kts | 42° |
| 2026-04-20 16:30 | 57.11497 | 38.65116 | 26935 ft | 417 kts | 43° |
| 2026-04-20 16:30 | 57.13699 | 38.68615 | 26935 ft | 417 kts | 43° |
| 2026-04-20 16:31 | 57.15899 | 38.72116 | 26940 ft | 418 kts | 43° |
| 2026-04-20 16:31 | 57.18077 | 38.75587 | 26936 ft | 418 kts | 43° |
| 2026-04-20 16:31 | 57.20287 | 38.79119 | 26936 ft | 418 kts | 42° |
| 2026-04-20 16:31 | 57.22489 | 38.82637 | 26933 ft | 418 kts | 43° |
| 2026-04-20 16:32 | 57.24672 | 38.86136 | 26934 ft | 418 kts | 43° |
| 2026-04-20 16:32 | 57.26875 | 38.89664 | 26934 ft | 419 kts | 43° |
| 2026-04-20 16:32 | 57.29081 | 38.93210 | 26934 ft | 419 kts | 43° |
| 2026-04-20 16:32 | 57.31262 | 38.96714 | 26934 ft | 419 kts | 43° |
| 2026-04-20 16:33 | 57.33469 | 39.00271 | 26935 ft | 419 kts | 43° |
| 2026-04-20 16:33 | 57.35651 | 39.03795 | 26936 ft | 420 kts | 43° |
| 2026-04-20 16:33 | 57.37861 | 39.07368 | 26936 ft | 420 kts | 43° |
| 2026-04-20 16:33 | 57.40062 | 39.10937 | 26934 ft | 420 kts | 43° |
| 2026-04-20 16:34 | 57.42265 | 39.14507 | 26938 ft | 420 kts | 43° |
| 2026-04-20 16:34 | 57.44465 | 39.18086 | 26936 ft | 420 kts | 43° |
| 2026-04-20 16:34 | 57.46643 | 39.21634 | 26940 ft | 421 kts | 43° |
| 2026-04-20 16:34 | 57.48843 | 39.25231 | 26938 ft | 421 kts | 43° |
| 2026-04-20 16:35 | 57.51049 | 39.28850 | 26939 ft | 421 kts | 43° |
| 2026-04-20 16:35 | 57.52376 | 39.31039 | 26940 ft | 421 kts | 43° |
| 2026-04-20 16:35 | 57.54599 | 39.34708 | 26939 ft | 422 kts | 43° |
| 2026-04-20 16:35 | 57.56795 | 39.38340 | 26937 ft | 422 kts | 43° |
| 2026-04-20 16:36 | 57.58975 | 39.41937 | 26940 ft | 422 kts | 43° |
| 2026-04-20 16:36 | 57.61189 | 39.45561 | 26937 ft | 422 kts | 43° |
| 2026-04-20 16:36 | 57.63409 | 39.49190 | 26939 ft | 422 kts | 42° |
| 2026-04-20 16:36 | 57.65618 | 39.52802 | 26939 ft | 423 kts | 43° |
| 2026-04-20 16:37 | 57.67831 | 39.56421 | 26941 ft | 423 kts | 42° |
| 2026-04-20 16:37 | 57.70047 | 39.60040 | 26941 ft | 423 kts | 43° |
| 2026-04-20 16:37 | 57.72228 | 39.63623 | 26944 ft | 423 kts | 43° |
| 2026-04-20 16:37 | 57.74446 | 39.67277 | 26942 ft | 424 kts | 43° |
| 2026-04-20 16:38 | 57.76658 | 39.70924 | 26941 ft | 424 kts | 43° |
| 2026-04-20 16:38 | 57.78874 | 39.74596 | 26940 ft | 424 kts | 43° |
| 2026-04-20 16:38 | 57.81083 | 39.78266 | 26941 ft | 424 kts | 43° |
| 2026-04-20 16:38 | 57.83315 | 39.81895 | 26934 ft | 425 kts | 38° |
| 2026-04-20 16:39 | 57.85890 | 39.84511 | 26810 ft | 430 kts | 20° |
| 2026-04-20 16:39 | 57.88832 | 39.85676 | 26681 ft | 435 kts | 7° |
| 2026-04-20 16:39 | 57.91865 | 39.86137 | 26531 ft | 439 kts | 3° |
| 2026-04-20 16:39 | 57.94929 | 39.86047 | 26392 ft | 442 kts | 354° |
| 2026-04-20 16:40 | 57.97976 | 39.85015 | 26254 ft | 446 kts | 348° |
| 2026-04-20 16:40 | 58.00974 | 39.83671 | 26115 ft | 449 kts | 347° |
| 2026-04-20 16:40 | 58.04019 | 39.82325 | 26037 ft | 449 kts | 348° |
| 2026-04-20 16:40 | 58.07083 | 39.81124 | 25994 ft | 449 kts | 349° |
| 2026-04-20 16:41 | 58.10157 | 39.80015 | 25987 ft | 448 kts | 349° |
| 2026-04-20 16:41 | 58.13222 | 39.78900 | 25979 ft | 447 kts | 349° |
| 2026-04-20 16:41 | 58.16243 | 39.77802 | 25974 ft | 446 kts | 349° |
| 2026-04-20 16:41 | 58.19286 | 39.76677 | 25974 ft | 444 kts | 349° |
| 2026-04-20 16:42 | 58.22316 | 39.75535 | 25979 ft | 442 kts | 349° |
| 2026-04-20 16:42 | 58.25347 | 39.74381 | 25974 ft | 441 kts | 349° |
| 2026-04-20 16:42 | 58.28332 | 39.73249 | 25978 ft | 439 kts | 349° |
| 2026-04-20 16:42 | 58.31325 | 39.72119 | 25983 ft | 438 kts | 349° |
| 2026-04-20 16:43 | 58.34305 | 39.70997 | 25988 ft | 436 kts | 349° |
| 2026-04-20 16:43 | 58.37239 | 39.69884 | 25987 ft | 435 kts | 349° |
| 2026-04-20 16:43 | 58.40207 | 39.68755 | 25992 ft | 433 kts | 349° |
| 2026-04-20 16:43 | 58.43163 | 39.67622 | 25992 ft | 432 kts | 349° |
| 2026-04-20 16:44 | 58.46111 | 39.66497 | 25999 ft | 430 kts | 349° |
| 2026-04-20 16:44 | 58.49055 | 39.65373 | 26002 ft | 430 kts | 349° |
| 2026-04-20 16:44 | 58.51950 | 39.64261 | 26000 ft | 429 kts | 349° |
| 2026-04-20 16:44 | 58.54881 | 39.63136 | 26004 ft | 424 kts | 350° |
| 2026-04-20 16:45 | 58.57737 | 39.62031 | 25767 ft | 415 kts | 349° |
| 2026-04-20 16:45 | 58.60553 | 39.60940 | 25335 ft | 412 kts | 349° |
| 2026-04-20 16:45 | 58.63357 | 39.59856 | 24910 ft | 409 kts | 350° |
| 2026-04-20 16:45 | 58.66145 | 39.58782 | 24491 ft | 407 kts | 350° |
| 2026-04-20 16:46 | 58.68878 | 39.57731 | 24084 ft | 404 kts | 350° |
| 2026-04-20 16:46 | 58.71639 | 39.56659 | 23682 ft | 402 kts | 350° |
| 2026-04-20 16:46 | 58.74386 | 39.55699 | 23209 ft | 399 kts | 352° |
| 2026-04-20 16:46 | 58.77054 | 39.54203 | 22711 ft | 400 kts | 335° |
| 2026-04-20 16:47 | 58.79291 | 39.51109 | 22244 ft | 403 kts | 316° |
| 2026-04-20 16:47 | 58.80906 | 39.46704 | 21786 ft | 405 kts | 298° |
| 2026-04-20 16:47 | 58.82037 | 39.41724 | 21346 ft | 404 kts | 293° |
| 2026-04-20 16:47 | 58.83001 | 39.36609 | 20906 ft | 404 kts | 290° |
| 2026-04-20 16:48 | 58.83823 | 39.31489 | 20472 ft | 404 kts | 287° |
| 2026-04-20 16:48 | 58.84158 | 39.26108 | 20023 ft | 406 kts | 270° |
| 2026-04-20 16:48 | 58.83981 | 39.20660 | 19607 ft | 406 kts | 266° |
| 2026-04-20 16:48 | 58.83751 | 39.15222 | 19186 ft | 406 kts | 266° |
| 2026-04-20 16:49 | 58.83559 | 39.09773 | 18768 ft | 406 kts | 268° |
| 2026-04-20 16:49 | 58.83455 | 39.04332 | 18356 ft | 405 kts | 270° |
| 2026-04-20 16:49 | 58.83414 | 38.98953 | 17888 ft | 405 kts | 271° |
| 2026-04-20 16:49 | 58.83372 | 38.93495 | 17420 ft | 405 kts | 270° |
| 2026-04-20 16:50 | 58.83308 | 38.88063 | 16957 ft | 405 kts | 270° |
| 2026-04-20 16:50 | 58.83243 | 38.82609 | 16501 ft | 405 kts | 270° |
| 2026-04-20 16:50 | 58.83176 | 38.77171 | 16051 ft | 405 kts | 270° |
| 2026-04-20 16:50 | 58.83113 | 38.71797 | 15609 ft | 404 kts | 271° |
| 2026-04-20 16:51 | 58.83575 | 38.66504 | 15148 ft | 398 kts | 294° |
| 2026-04-20 16:51 | 58.84963 | 38.61963 | 14726 ft | 391 kts | 309° |
| 2026-04-20 16:51 | 58.86663 | 38.57867 | 14305 ft | 389 kts | 314° |
| 2026-04-20 16:51 | 58.88477 | 38.54106 | 13889 ft | 385 kts | 321° |
| 2026-04-20 16:52 | 58.90604 | 38.51018 | 13419 ft | 381 kts | 328° |
| 2026-04-20 16:52 | 58.92473 | 38.47355 | 12941 ft | 386 kts | 308° |
| 2026-04-20 16:52 | 58.93838 | 38.42873 | 12491 ft | 383 kts | 298° |
| 2026-04-20 16:52 | 58.94869 | 38.38219 | 11990 ft | 367 kts | 294° |
| 2026-04-20 16:53 | 58.95754 | 38.33728 | 11435 ft | 345 kts | 293° |
| 2026-04-20 16:53 | 58.96575 | 38.29528 | 10913 ft | 329 kts | 294° |
| 2026-04-20 16:53 | 58.97394 | 38.25487 | 10383 ft | 316 kts | 295° |
| 2026-04-20 16:53 | 58.98218 | 38.21608 | 9863 ft | 305 kts | 296° |
| 2026-04-20 16:54 | 58.99023 | 38.17853 | 9297 ft | 297 kts | 296° |
| 2026-04-20 16:54 | 58.99806 | 38.14195 | 8747 ft | 290 kts | 295° |
| 2026-04-20 16:54 | 59.00559 | 38.10663 | 8209 ft | 283 kts | 295° |
| 2026-04-20 16:54 | 59.01303 | 38.07165 | 7671 ft | 278 kts | 296° |
| 2026-04-20 16:55 | 59.02036 | 38.03721 | 7144 ft | 273 kts | 295° |
| 2026-04-20 16:55 | 59.02754 | 38.00344 | 6634 ft | 268 kts | 295° |
| 2026-04-20 16:55 | 59.03465 | 37.97020 | 6099 ft | 263 kts | 295° |
| 2026-04-20 16:55 | 59.04154 | 37.93757 | 5557 ft | 259 kts | 296° |
| 2026-04-20 16:56 | 59.04824 | 37.90585 | 5042 ft | 255 kts | 296° |
| 2026-04-20 16:56 | 59.05640 | 37.87601 | 4485 ft | 243 kts | 318° |
| 2026-04-20 16:56 | 59.06993 | 37.85755 | 4006 ft | 237 kts | 337° |
| 2026-04-20 16:56 | 59.08474 | 37.84317 | 3545 ft | 238 kts | 339° |
| 2026-04-20 16:57 | 59.09964 | 37.82936 | 3128 ft | 234 kts | 339° |
| 2026-04-20 16:57 | 59.11401 | 37.81584 | 2716 ft | 231 kts | 339° |
| 2026-04-20 16:57 | 59.12834 | 37.80234 | 2468 ft | 222 kts | 346° |
| 2026-04-20 16:57 | 59.14269 | 37.80264 | 2343 ft | 200 kts | 23° |
| 2026-04-20 16:58 | 59.15519 | 37.81274 | 2233 ft | 190 kts | 26° |
| 2026-04-20 16:58 | 59.16626 | 37.82490 | 2116 ft | 181 kts | 38° |
| 2026-04-20 16:58 | 59.17575 | 37.84007 | 2040 ft | 171 kts | 43° |
| 2026-04-20 16:58 | 59.18429 | 37.85549 | 2032 ft | 163 kts | 44° |
| 2026-04-20 16:59 | 59.19217 | 37.87008 | 2041 ft | 151 kts | 45° |
| 2026-04-20 16:59 | 59.19957 | 37.88383 | 2024 ft | 142 kts | 44° |
| 2026-04-20 16:59 | 59.20662 | 37.89665 | 1996 ft | 134 kts | 44° |
| 2026-04-20 16:59 | 59.21331 | 37.90872 | 1873 ft | 126 kts | 43° |
| 2026-04-20 17:00 | 59.22487 | 37.92920 | 1555 ft | 104 kts | 42° |
| 2026-04-20 17:00 | 59.23024 | 37.93871 | 1372 ft | 105 kts | 41° |
| 2026-04-20 17:00 | 59.23593 | 37.94869 | 1185 ft | 115 kts | 41° |
| 2026-04-20 17:01 | 59.24188 | 37.95939 | 1037 ft | 117 kts | 40° |
| 2026-04-20 17:01 | 59.24801 | 37.97007 | 892 ft | 120 kts | 40° |
| 2026-04-20 17:01 | 59.25432 | 37.98119 | 724 ft | 124 kts | 38° |
| 2026-04-20 17:01 | 59.26075 | 37.99252 | 565 ft | 127 kts | 38° |
| 2026-04-20 17:02 | 59.26751 | 38.00370 | 412 ft | 126 kts | 38° |
| 2026-04-20 17:02 | 59.27326 | 38.01380 | 371 ft | 88 kts | 43° |
| 2026-04-20 17:02 | 59.27663 | 38.01975 | 373 ft | 51 kts | 42° |
| 2026-04-20 17:02 | 59.27859 | 38.02165 | 374 ft | 19 kts | 324° |
| 2026-04-20 17:03 | 59.27949 | 38.02050 | 375 ft | 13 kts | 22° |
| 2026-04-20 17:03 | 59.28023 | 38.02169 | 375 ft | 12 kts | 30° |
| 2026-04-20 17:03 | 59.28059 | 38.02159 | 375 ft | 0 kts | 314° |
| 2026-04-20 17:03 | 59.28059 | 38.02160 | 375 ft | 0 kts | 314° |
| 2026-04-20 17:05 | 59.28059 | 38.02159 | 375 ft | 0 kts | 314° |